Latest Weather Observations for Low Head

IDT60801

Issued at 9:02 am EDT Tuesday 21 February 2017 (issued every 30 minutes, with the page automatically refreshed every 10 minutes)

About weather observations | Map of weather stations | Latest weather observations for TAS | Other Formats
Station Details ID: 091293 Name: LOW HEAD Lat: -41.05 Lon: 146.79 Height: 3.0 m
Data from the previous 72 hours. | See also: Recent months at Low Head
Date/Time
EDT
Temp
°C
App
Temp
°C
Dew
Point
°C
Rel
Hum
%
Delta-T
°C
Wind Press
QNH
hPa
Press
MSL
hPa
Rain since
9am
mm
Dir  Spd
km/h
Gust
km/h
Spd
kts
Gust
kts
21/09:00am 13.4 9.7 11.5 88 1.0 S 22 26 12 14 1017.6 1017.6 0.0
21/08:30am 12.6 8.8 11.2 91 0.7 S 22 24 12 13 1017.3 1017.3 0.0
21/08:00am 12.2 8.9 10.9 92 0.7 S 19 22 10 12 1016.9 1016.9 0.0
21/07:30am 11.2 7.7 10.1 93 0.6 SSE 19 22 10 12 1016.3 1016.3 0.0
21/07:00am 11.2 8.0 10.0 92 0.6 S 17 20 9 11 1015.9 1015.9 0.0
21/06:30am 11.4 8.6 10.0 91 0.7 SSE 15 20 8 11 1015.5 1015.5 0.0
21/06:00am 11.5 8.7 9.9 90 0.8 SSE 15 17 8 9 1015.0 1015.0 0.0
21/05:30am 10.9 8.2 9.0 88 0.9 SSE 13 17 7 9 1014.5 1014.5 0.0
21/05:00am 11.7 9.1 9.4 86 1.2 S 13 17 7 9 1014.5 1014.5 0.0
21/04:30am 12.8 10.1 10.2 84 1.3 S 15 19 8 10 1014.2 1014.2 0.0
21/04:00am 12.1 9.8 8.9 81 1.6 SSE 11 13 6 7 1014.1 1014.1 0.0
21/03:30am 12.5 10.7 9.3 81 1.6 SSE 9 11 5 6 1014.0 1014.0 0.0
21/03:00am 13.2 11.2 10.0 81 1.6 S 11 15 6 8 1013.8 1013.8 0.0
21/02:30am 12.7 10.1 9.3 80 1.7 S 13 15 7 8 1013.2 1013.2 0.0
21/02:00am 13.2 10.7 9.8 80 1.7 SSW 13 15 7 8 1013.1 1013.1 0.0
21/01:30am 13.6 10.4 10.0 79 1.9 S 17 20 9 11 1013.1 1013.1 0.0
21/01:00am 13.6 10.5 10.2 80 1.8 SSW 17 20 9 11 1013.0 1013.0 0.0
21/12:30am 13.7 10.5 10.1 79 1.9 SSW 17 19 9 10 1012.9 1012.9 0.0
21/12:00am 14.4 11.8 10.6 78 2.0 S 15 20 8 11 1012.6 1012.6 0.0
 
Date/Time
EDT
Temp
°C
App
Temp
°C
Dew
Point
°C
Rel
Hum
%
Delta-T
°C
Wind Press
QNH
hPa
Press
MSL
hPa
Rain since
9am
mm
Dir  Spd
km/h
Gust
km/h
Spd
kts
Gust
kts
20/11:30pm 14.0 11.9 9.8 76 2.2 S 11 15 6 8 1012.3 1012.3 0.0
20/11:00pm 13.9 11.0 9.7 76 2.2 SSE 15 19 8 10 1012.0 1012.0 0.0
20/10:30pm 14.8 11.8 10.6 76 2.2 S 17 20 9 11 1011.7 1011.7 0.0
20/10:00pm 15.3 12.4 10.9 75 2.3 SSW 17 19 9 10 1011.3 1011.3 0.0
20/09:30pm 15.3 13.1 10.7 74 2.4 SSE 13 15 7 8 1010.8 1010.8 0.0
20/09:00pm 17.1 15.4 12.4 74 2.6 WSW 13 17 7 9 1010.5 1010.5 0.0
20/08:30pm 17.2 15.5 12.5 74 2.6 WNW 13 13 7 7 1009.9 1009.9 0.0
20/08:00pm 17.6 16.0 12.7 73 2.7 WNW 13 15 7 8 1009.6 1009.6 0.0
20/07:30pm 18.1 15.8 13.0 72 2.9 WNW 17 20 9 11 1009.2 1009.2 0.0
20/07:00pm 18.8 16.5 13.0 69 3.3 WNW 17 20 9 11 1008.8 1008.8 0.0
20/06:30pm 18.9 15.8 11.7 63 4.0 WNW 19 20 10 11 1008.5 1008.5 0.0
20/06:00pm 19.0 15.8 13.0 68 3.4 WNW 22 24 12 13 1008.1 1008.1 0.0
20/05:30pm 18.4 14.3 12.6 69 3.2 WNW 26 30 14 16 1007.8 1007.8 0.0
20/05:00pm 18.5 13.4 12.0 66 3.6 WNW 30 33 16 18 1007.7 1007.7 0.0
20/04:30pm 18.1 12.5 11.4 65 3.7 WNW 32 35 17 19 1007.6 1007.6 0.0
20/04:00pm 18.2 13.6 12.2 68 3.3 NW 28 33 15 18 1007.5 1007.5 0.0
20/03:30pm 18.4 13.4 11.0 62 4.0 NW 28 32 15 17 1007.3 1007.3 0.0
20/03:00pm 17.3 11.1 9.5 60 4.1 NW 32 35 17 19 1007.3 1007.3 0.0
20/02:30pm 17.1 11.2 9.0 59 4.2 WNW 30 32 16 17 1007.4 1007.4 0.0
20/02:00pm 17.2 11.3 8.9 58 4.3 WNW 30 33 16 18 1007.2 1007.2 0.0
20/01:30pm 17.5 11.5 10.1 62 3.9 WNW 32 35 17 19 1007.1 1007.1 0.0
20/01:00pm 17.8 12.1 9.7 59 4.3 WNW 30 35 16 19 1007.1 1007.1 0.0
20/12:30pm 17.8 13.6 11.1 65 3.6 WNW 24 30 13 16 1007.3 1007.3 0.0
20/12:00pm 17.9 16.3 11.5 66 3.5 WNW 11 17 6 9 1007.4 1007.4 0.0
20/11:30am 15.5 13.7 9.4 67 3.1 W 9 13 5 7 1007.6 1007.6 0.0
20/11:00am 14.1 10.5 8.5 69 2.8 SSW 17 20 9 11 1007.5 1007.5 0.0
20/10:30am 13.3 8.4 8.4 72 2.4 S 24 28 13 15 1007.6 1007.6 0.0
20/10:00am 12.8 7.8 8.1 73 2.3 S 24 32 13 17 1007.4 1007.4 0.0
20/09:30am 11.8 6.0 7.9 77 1.9 S 28 33 15 18 1007.1 1007.1 0.0
20/09:00am 11.8 6.1 8.5 80 1.6 S 28 33 15 18 1006.9 1006.9 1.4
20/08:30am 11.1 4.9 8.0 81 1.5 S 30 33 16 18 1006.6 1006.6 1.4
20/08:00am 10.6 4.7 7.7 82 1.4 S 28 35 15 19 1006.3 1006.3 1.4
20/07:30am 10.1 4.2 7.3 83 1.3 S 28 33 15 18 1006.2 1006.2 1.4
20/07:00am 10.1 4.6 7.5 84 1.2 SSE 26 32 14 17 1006.2 1006.2 1.4
20/06:30am 10.3 4.5 7.9 85 1.2 S 28 35 15 19 1006.1 1006.1 1.4
20/06:00am 10.1 5.1 8.0 87 1.0 SSE 24 30 13 16 1005.9 1005.9 1.4
20/05:30am 9.5 5.1 7.4 87 1.0 SSE 20 26 11 14 1005.7 1005.7 1.4
20/05:00am 9.5 5.7 7.6 88 0.9 SSE 17 26 9 14 1005.7 1005.7 1.4
20/04:30am 9.4 5.0 7.3 87 1.0 SSE 20 24 11 13 1005.6 1005.6 1.4
20/04:00am 9.7 5.3 7.6 87 1.0 SSE 20 24 11 13 1005.7 1005.7 1.4
20/03:30am 10.5 6.3 8.4 87 1.0 S 20 24 11 13 1005.5 1005.5 1.4
20/03:00am 9.9 5.3 8.2 89 0.8 S 22 26 12 14 1005.3 1005.3 1.4
20/02:30am 10.1 6.8 8.2 88 0.9 SSE 15 19 8 10 1005.5 1005.5 1.4
20/02:00am 10.1 6.8 8.0 87 1.0 SSE 15 19 8 10 1005.7 1005.7 1.4
20/01:30am 10.6 7.4 8.4 86 1.1 SSE 15 19 8 10 1005.7 1005.7 1.4
20/01:00am 10.6 7.3 8.0 84 1.3 S 15 19 8 10 1005.6 1005.6 1.4
20/12:30am 11.0 8.1 8.2 83 1.4 S 13 15 7 8 1005.4 1005.4 1.4
20/12:00am 11.0 8.7 7.5 79 1.7 S 9 11 5 6 1005.9 1005.9 1.4
 
Date/Time
EDT
Temp
°C
App
Temp
°C
Dew
Point
°C
Rel
Hum
%
Delta-T
°C
Wind Press
QNH
hPa
Press
MSL
hPa
Rain since
9am
mm
Dir  Spd
km/h
Gust
km/h
Spd
kts
Gust
kts
19/11:30pm 11.5 10.2 7.6 77 1.9 S 4 9 2 5 1005.9 1005.9 1.2
19/11:00pm 11.7 8.7 7.6 76 2.0 SSE 13 17 7 9 1006.2 1006.2 0.6
19/10:30pm 11.7 8.9 6.8 72 2.3 SSE 11 13 6 7 1006.2 1006.2 0.6
19/10:00pm 12.7 10.4 7.4 70 2.6 ESE 9 11 5 6 1006.1 1006.1 0.6
19/09:30pm 14.0 13.0 7.5 65 3.2 N 2 9 1 5 1006.0 1006.0 0.6
19/09:00pm 14.2 11.9 7.5 64 3.3 NNW 9 13 5 7 1005.6 1005.6 0.6
19/08:30pm 14.2 12.0 7.7 65 3.2 NNW 9 13 5 7 1005.3 1005.3 0.6
19/08:00pm 14.2 11.6 7.7 65 3.2 N 11 15 6 8 1005.0 1005.0 0.6
19/07:30pm 14.6 11.6 7.6 63 3.5 N 13 17 7 9 1004.7 1004.7 0.6
19/07:00pm 14.8 11.5 8.1 64 3.4 N 15 20 8 11 1004.5 1004.5 0.6
19/06:30pm 15.0 11.5 7.3 60 3.8 N 15 19 8 10 1004.3 1004.3 0.6
19/06:00pm 15.4 12.3 7.4 59 4.0 N 13 19 7 10 1004.0 1004.0 0.6
19/05:30pm 15.4 12.5 8.2 62 3.6 N 13 19 7 10 1003.9 1003.9 0.6
19/05:00pm 15.4 12.5 9.7 69 3.0 N 15 20 8 11 1003.9 1003.9 0.6
19/04:30pm 14.8 11.3 8.7 67 3.1 NNE 17 22 9 12 1003.9 1003.9 0.6
19/04:00pm 16.3 13.6 9.0 62 3.8 N 13 17 7 9 1004.0 1004.0 0.6
19/03:30pm 15.4 13.2 9.3 67 3.1 N 11 15 6 8 1004.1 1004.1 0.6
19/03:00pm 14.2 11.6 9.2 72 2.6 NNE 13 17 7 9 1004.4 1004.4 0.6
19/02:30pm 13.4 9.8 8.5 72 2.4 N 17 20 9 11 1004.5 1004.5 0.4
19/02:00pm 14.9 11.4 7.2 60 3.8 NNW 15 20 8 11 1004.4 1004.4 0.0
19/01:30pm 16.1 14.3 9.5 65 3.4 N 9 19 5 10 1004.4 1004.4 0.0
19/01:00pm 16.1 12.9 8.6 61 3.8 N 15 19 8 10 1004.7 1004.7 0.0
19/12:30pm 15.8 13.3 8.1 60 3.9 NW 11 17 6 9 1004.7 1004.7 0.0
19/12:00pm 15.7 12.8 9.6 67 3.2 NW 15 20 8 11 1004.9 1004.9 0.0
19/11:30am 15.9 13.1 10.0 68 3.1 WNW 15 20 8 11 1005.0 1005.0 0.0
19/11:00am 15.2 12.3 9.6 69 2.9 WNW 15 20 8 11 1005.1 1005.1 0.0
19/10:30am 14.5 10.7 8.9 69 2.8 W 19 24 10 13 1004.9 1004.9 0.0
19/10:00am 14.0 10.5 8.6 70 2.7 WNW 17 19 9 10 1004.8 1004.8 0.0
19/09:30am 13.5 9.4 8.8 73 2.4 W 20 26 11 14 1004.5 1004.5 0.0
19/09:00am 13.0 8.2 8.7 75 2.2 WNW 24 33 13 18 1004.3 1004.3 5.6
19/08:30am 13.1 8.4 9.2 77 2.0 WNW 24 28 13 15 1004.1 1004.1 5.6
19/08:00am 12.5 7.2 8.6 77 1.9 WNW 26 33 14 18 1004.0 1004.0 5.6
19/07:30am 12.5 7.6 8.6 77 1.9 WNW 24 32 13 17 1003.7 1003.7 5.6
19/07:00am 12.9 8.2 9.2 78 1.9 WNW 24 28 13 15 1003.9 1003.9 5.6
19/06:30am 12.8 8.1 9.4 80 1.7 NW 24 28 13 15 1003.6 1003.6 5.6
19/06:00am 12.9 7.9 9.5 80 1.7 WNW 26 33 14 18 1003.5 1003.5 5.6
19/05:30am 12.9 6.7 9.2 78 1.9 NW 32 39 17 21 1003.7 1003.7 5.4
19/05:00am 12.5 6.2 9.1 80 1.7 NW 32 35 17 19 1003.8 1003.8 5.4
19/04:30am 11.9 7.4 8.7 81 1.6 NNW 22 26 12 14 1004.0 1004.0 5.4
19/04:27am 12.0 8.0 9.0 82 1.5 NNW 20 26 11 14 1004.1 1004.1 5.4
19/04:00am 11.0 2.3 7.9 81 1.5 WNW 43 52 23 28 1004.7 1004.7 4.4
19/03:49am 12.7 5.9 9.2 79 1.8 NW 35 50 19 27 1004.7 1004.7 3.4
19/03:30am 12.8 7.2 8.7 76 2.0 NW 28 32 15 17 1004.7 1004.7 3.0
19/03:00am 12.4 7.8 8.3 76 2.0 NW 22 32 12 17 1005.0 1005.0 3.0
19/02:30am 12.6 5.7 8.7 77 1.9 NW 35 41 19 22 1005.6 1005.6 1.8
19/02:00am 12.3 4.5 8.2 76 2.0 NW 39 46 21 25 1005.9 1005.9 1.4
19/01:45am 13.2 7.3 9.1 76 2.1 NNW 30 43 16 23 1005.9 1005.9 1.4
19/01:30am 12.2 8.0 8.3 77 1.9 NW 20 24 11 13 1006.1 1006.1 1.4
19/01:00am 12.5 3.0 8.2 75 2.1 NW 48 57 26 31 1006.6 1006.6 0.8
19/12:52am 13.6 6.7 8.7 72 2.5 NW 35 54 19 29 1006.5 1006.5 0.0
19/12:30am 13.3 7.8 7.5 68 2.8 WNW 26 32 14 17 1006.6 1006.6 0.0
19/12:00am 12.8 7.7 7.7 71 2.5 NW 24 30 13 16 1006.8 1006.8 0.0
 
Date/Time
EDT
Temp
°C
App
Temp
°C
Dew
Point
°C
Rel
Hum
%
Delta-T
°C
Wind Press
QNH
hPa
Press
MSL
hPa
Rain since
9am
mm
Dir  Spd
km/h
Gust
km/h
Spd
kts
Gust
kts
18/11:44pm 12.8 4.9 7.9 72 2.4 NW 39 50 21 27 1006.9 1006.9 0.0
18/11:30pm 13.8 6.3 7.8 67 3.0 WNW 37 52 20 28 1007.0 1007.0 0.0
18/11:00pm 14.0 7.3 7.5 65 3.2 W 32 39 17 21 1007.1 1007.1 0.0
18/10:30pm 14.2 7.4 7.7 65 3.2 W 33 39 18 21 1007.4 1007.4 0.0
18/10:00pm 14.1 7.0 8.1 67 3.0 W 35 46 19 25 1007.6 1007.6 0.0
18/09:30pm 14.5 6.0 7.1 61 3.6 W 41 46 22 25 1007.4 1007.4 0.0
18/09:00pm 14.6 6.5 6.9 60 3.8 W 39 48 21 26 1007.2 1007.2 0.0
18/08:30pm 15.0 7.1 7.8 62 3.6 W 39 46 21 25 1007.0 1007.0 0.0
18/08:17pm 14.7 5.8 7.5 62 3.6 WNW 44 54 24 29 1006.9 1006.9 0.0
18/08:00pm 15.0 7.0 8.9 67 3.1 WNW 41 48 22 26 1007.0 1007.0 0.0
18/07:30pm 15.4 7.5 7.9 61 3.8 WNW 39 46 21 25 1006.7 1006.7 0.0
18/07:00pm 15.7 7.4 7.7 59 4.0 WNW 41 46 22 25 1006.5 1006.5 0.0
18/06:30pm 16.2 8.0 8.4 60 4.0 WNW 41 48 22 26 1006.5 1006.5 0.0
18/06:00pm 16.2 8.4 8.2 59 4.1 WNW 39 44 21 24 1006.6 1006.6 0.0
18/05:30pm 16.5 8.7 8.2 58 4.2 WNW 39 48 21 26 1006.6 1006.6 0.0
18/05:00pm 16.2 7.5 7.9 58 4.2 WNW 43 50 23 27 1006.6 1006.6 0.0
18/04:30pm 17.1 9.4 8.5 57 4.4 WNW 39 50 21 27 1006.7 1006.7 0.0
18/04:00pm 17.2 9.5 8.6 57 4.4 WNW 39 43 21 23 1006.9 1006.9 0.0
18/03:30pm 17.3 9.2 8.7 57 4.4 WNW 41 50 22 27 1007.2 1007.2 0.0
18/03:00pm 17.6 10.0 9.0 57 4.5 NW 39 46 21 25 1007.4 1007.4 0.0
18/02:30pm 17.3 10.2 8.2 55 4.6 NW 35 41 19 22 1007.5 1007.5 0.0
18/02:00pm 17.6 10.5 8.2 54 4.8 WNW 35 41 19 22 1007.3 1007.3 0.0
18/01:30pm 17.4 10.7 8.3 55 4.7 NW 33 39 18 21 1007.2 1007.2 0.0
18/01:00pm 17.0 10.4 7.6 54 4.7 NW 32 39 17 21 1007.6 1007.6 0.0
18/12:30pm 17.1 11.2 7.5 53 4.8 NW 28 35 15 19 1007.7 1007.7 0.0
18/12:00pm 16.9 11.5 7.8 55 4.6 WNW 26 33 14 18 1008.0 1008.0 0.0
18/11:30am 16.2 10.7 7.4 56 4.4 WNW 26 32 14 17 1008.1 1008.1 0.0
18/11:00am 16.2 11.5 7.9 58 4.2 WNW 22 28 12 15 1008.3 1008.3 0.0
18/10:30am 15.1 10.7 7.2 59 3.9 WNW 20 24 11 13 1008.3 1008.3 0.0
18/10:00am 15.1 12.0 8.8 66 3.2 WNW 15 19 8 10 1008.3 1008.3 0.0
18/09:30am 13.6 10.2 7.8 68 2.9 W 15 17 8 9 1008.3 1008.3 0.0

Other Formats:

Comma delimited format used in spreadsheet applications
http://www.bom.gov.au/fwo/IDT60801/IDT60801.95964.axf

JavaScript Object Notation format (JSON) in row-major order
http://www.bom.gov.au/fwo/IDT60801/IDT60801.95964.json